Time;durP1;ratioP1;P1;durP2;ratioP2;P2;SDS_P1;SDS_P2;PMS_P1;PMS_P2;Temp;Humidity;BMP_temperature;BMP_pressure;BME280_temperature;BME280_humidity;BME280_pressure;Samples;Min_cycle;Max_cycle;Signal;HPM_P1;HPM_P2
2023/06/11 00:01:15;;;;;;;0.60;0.60;;;7.60;99.90;;;;;;5070948;28;20196;-65
2023/06/11 00:03:42;;;;;;;0.70;0.70;;;7.60;99.90;;;;;;5071006;28;20225;-66
2023/06/11 00:06:08;;;;;;;0.60;0.60;;;7.60;99.90;;;;;;5054017;28;20279;-66
2023/06/11 00:08:34;;;;;;;0.70;0.70;;;7.60;99.90;;;;;;5071296;28;20196;-66
2023/06/11 00:11:00;;;;;;;0.77;0.77;;;7.60;99.90;;;;;;5071463;28;20189;-65
2023/06/11 00:13:27;;;;;;;0.60;0.60;;;7.60;99.90;;;;;;5091354;28;20192;-65
2023/06/11 00:15:53;;;;;;;0.60;0.60;;;7.60;99.90;;;;;;5091741;28;20219;-66
2023/06/11 00:18:19;;;;;;;0.60;0.60;;;7.60;99.90;;;;;;5091657;28;20611;-66
2023/06/11 00:20:46;;;;;;;0.60;0.60;;;7.50;99.90;;;;;;5091476;28;20200;-66
2023/06/11 00:23:12;;;;;;;0.60;0.60;;;7.50;99.90;;;;;;5091525;28;20188;-66
2023/06/11 00:25:37;;;;;;;0.70;0.70;;;7.50;99.90;;;;;;5091983;28;20203;-65
2023/06/11 00:28:03;;;;;;;0.70;0.70;;;7.40;99.90;;;;;;5091833;28;20188;-65
2023/06/11 00:30:29;;;;;;;0.88;0.82;;;7.40;99.90;;;;;;5073100;28;20204;-65
2023/06/11 00:32:55;;;;;;;0.90;0.90;;;7.40;99.90;;;;;;5091414;28;20192;-64
2023/06/11 00:35:21;;;;;;;0.60;0.60;;;7.40;99.90;;;;;;5072473;28;20228;-66
2023/06/11 00:37:47;;;;;;;0.60;0.60;;;7.40;99.90;;;;;;5070906;28;20192;-67
2023/06/11 00:40:13;;;;;;;0.60;0.60;;;7.30;99.90;;;;;;5070914;28;20204;-66
2023/06/11 00:42:40;;;;;;;0.70;0.70;;;7.30;99.90;;;;;;5070406;28;20204;-66
2023/06/11 00:45:07;;;;;;;0.70;0.70;;;7.20;99.90;;;;;;5070992;28;20212;-66
2023/06/11 00:47:33;;;;;;;0.70;0.70;;;7.20;99.90;;;;;;5070811;28;20193;-66
2023/06/11 00:50:02;;;;;;;0.70;0.70;;;7.10;99.90;;;;;;5070974;28;20192;-66
2023/06/11 00:52:27;;;;;;;0.70;0.70;;;7.10;99.90;;;;;;5070751;28;20270;-66
2023/06/11 00:54:54;;;;;;;0.60;0.60;;;7.10;99.90;;;;;;5071075;28;20223;-66
2023/06/11 00:57:24;;;;;;;0.63;0.63;;;7.10;99.90;;;;;;5070689;28;20197;-67
2023/06/11 00:59:53;;;;;;;0.70;0.70;;;7.00;99.90;;;;;;5052868;28;20283;-66
2023/06/11 01:02:33;;;;;;;0.60;0.60;;;7.00;99.90;;;;;;5071213;28;20279;-69
2023/06/11 01:05:01;;;;;;;0.70;0.70;;;7.00;99.90;;;;;;5048653;22;20242;-69
2023/06/11 01:07:30;;;;;;;0.60;0.60;;;6.90;99.90;;;;;;5030389;28;20190;-70
2023/06/11 01:09:57;;;;;;;0.70;0.70;;;6.90;99.90;;;;;;5012788;28;20209;-70
2023/06/11 01:12:22;;;;;;;0.60;0.60;;;6.80;99.90;;;;;;5030278;28;20341;-70
2023/06/11 01:14:48;;;;;;;0.70;0.70;;;6.80;99.90;;;;;;5030348;28;20280;-69
2023/06/11 01:17:22;;;;;;;0.60;0.60;;;6.80;99.90;;;;;;5012676;28;20205;-69
2023/06/11 01:20:09;;;;;;;0.70;0.70;;;6.70;99.90;;;;;;5030481;28;20278;-69
2023/06/11 01:23:00;;;;;;;0.70;0.70;;;6.70;99.90;;;;;;5034064;28;20684;-69
2023/06/11 01:25:51;;;;;;;0.60;0.60;;;6.70;99.90;;;;;;5033943;28;20194;-69
2023/06/11 01:28:28;;;;;;;0.70;0.70;;;6.70;99.90;;;;;;5003743;28;20748;-69
2023/06/11 01:30:57;;;;;;;0.60;0.60;;;6.60;99.90;;;;;;5016574;28;20201;-70
2023/06/11 01:45:06;;;;;;;0.60;0.60;;;6.50;99.90;;;;;;5010085;28;20198;-70
2023/06/11 01:47:07;;;;;;;0.70;0.70;;;6.40;99.90;;;;;;5006658;28;20195;-71
2023/06/11 01:49:33;;;;;;;0.68;0.68;;;6.40;99.90;;;;;;5014000;28;20187;-71
2023/06/11 01:51:58;;;;;;;0.60;0.60;;;6.40;99.90;;;;;;5014497;28;20194;-70
2023/06/11 01:54:25;;;;;;;0.70;0.70;;;6.40;99.90;;;;;;5033397;28;20673;-70
2023/06/11 01:56:51;;;;;;;0.70;0.70;;;6.40;99.90;;;;;;5033784;28;20191;-71
2023/06/11 01:59:17;;;;;;;0.63;0.63;;;6.40;99.90;;;;;;5033616;28;20588;-70
2023/06/11 02:01:43;;;;;;;0.63;0.63;;;6.40;99.90;;;;;;5046311;28;20205;-70
2023/06/11 02:04:09;;;;;;;0.70;0.70;;;6.40;99.90;;;;;;5035143;28;20271;-70
2023/06/11 02:06:34;;;;;;;0.70;0.70;;;6.40;99.90;;;;;;5052958;28;20675;-71
2023/06/11 02:09:00;;;;;;;0.70;0.70;;;6.40;99.90;;;;;;5053205;28;20197;-70
2023/06/11 02:11:26;;;;;;;0.60;0.60;;;6.50;99.90;;;;;;5053071;28;20238;-70
2023/06/11 02:13:52;;;;;;;0.60;0.60;;;6.50;99.90;;;;;;5052959;28;20204;-71
2023/06/11 02:16:17;;;;;;;0.70;0.70;;;6.50;99.90;;;;;;5053060;28;20563;-70
2023/06/11 02:18:43;;;;;;;0.70;0.70;;;6.50;99.90;;;;;;5035214;28;20202;-70
2023/06/11 02:21:09;;;;;;;0.73;0.73;;;6.50;99.90;;;;;;5053017;28;20750;-70
2023/06/11 02:23:35;;;;;;;0.80;0.80;;;6.40;99.90;;;;;;5034837;28;20255;-70
2023/06/11 02:26:00;;;;;;;0.60;0.60;;;6.40;99.90;;;;;;5032383;28;20737;-70
2023/06/11 02:28:26;;;;;;;0.70;0.70;;;6.50;99.90;;;;;;5032853;28;20195;-70
2023/06/11 02:30:52;;;;;;;0.65;0.65;;;6.50;99.90;;;;;;5014888;28;20202;-70
2023/06/11 02:33:17;;;;;;;0.70;0.70;;;6.50;99.90;;;;;;5013601;28;20280;-71
2023/06/11 02:35:43;;;;;;;0.70;0.70;;;6.60;99.90;;;;;;5032828;28;20301;-70
2023/06/11 02:38:09;;;;;;;0.60;0.60;;;6.60;99.90;;;;;;5032933;28;20193;-70
2023/06/11 02:40:35;;;;;;;0.70;0.70;;;6.70;99.90;;;;;;5032467;28;20659;-70
2023/06/11 02:43:00;;;;;;;0.70;0.70;;;6.80;99.90;;;;;;5014949;28;20213;-71
2023/06/11 02:45:26;;;;;;;0.60;0.60;;;6.90;99.90;;;;;;5014779;28;20197;-71
2023/06/11 02:47:52;;;;;;;0.70;0.70;;;7.00;99.90;;;;;;5032477;28;20700;-70
2023/06/11 02:50:17;;;;;;;0.60;0.60;;;7.10;99.90;;;;;;5032455;28;20684;-70
2023/06/11 02:52:43;;;;;;;0.70;0.70;;;7.10;99.90;;;;;;5032611;28;20238;-71
2023/06/11 02:55:09;;;;;;;0.80;0.80;;;7.20;99.90;;;;;;5032451;28;20679;-70
2023/06/11 02:57:35;;;;;;;0.60;0.60;;;7.30;99.90;;;;;;5014508;28;20194;-71
2023/06/11 03:00:01;;;;;;;0.65;0.65;;;7.30;99.90;;;;;;5032364;28;20217;-70
2023/06/11 03:02:26;;;;;;;0.60;0.60;;;7.40;99.90;;;;;;5030789;28;20245;-70
2023/06/11 03:04:52;;;;;;;0.60;0.60;;;7.40;99.90;;;;;;5012142;28;20274;-71
2023/06/11 03:07:18;;;;;;;0.60;0.60;;;7.50;99.90;;;;;;5012428;28;20278;-71
2023/06/11 03:09:43;;;;;;;4.53;1.23;;;7.60;99.90;;;;;;5005894;28;20202;-71
2023/06/11 03:12:09;;;;;;;0.70;0.70;;;7.90;99.90;;;;;;5014320;28;20202;-72
2023/06/11 03:14:35;;;;;;;1.45;1.35;;;8.00;99.90;;;;;;5031036;28;20403;-71
2023/06/11 03:17:01;;;;;;;0.63;0.63;;;8.00;99.90;;;;;;5014304;28;20256;-71
2023/06/11 03:19:26;;;;;;;0.70;0.70;;;8.10;99.90;;;;;;5031847;28;20201;-72
2023/06/11 03:21:52;;;;;;;0.63;0.63;;;8.20;99.90;;;;;;5032057;28;20715;-73
2023/06/11 03:24:18;;;;;;;0.63;0.63;;;8.20;99.90;;;;;;5031699;28;20217;-70
2023/06/11 03:26:44;;;;;;;0.90;0.90;;;8.30;99.90;;;;;;5013937;28;20252;-71
2023/06/11 03:29:09;;;;;;;0.85;0.85;;;8.30;99.90;;;;;;5032265;28;20665;-71
2023/06/11 03:31:37;;;;;;;0.95;0.95;;;8.40;99.90;;;;;;5031928;28;20222;-72
2023/06/11 03:34:03;;;;;;;0.60;0.60;;;8.50;99.90;;;;;;5014495;28;20244;-72
2023/06/11 03:36:28;;;;;;;0.55;0.55;;;8.60;99.90;;;;;;5031635;28;20202;-71
2023/06/11 03:38:54;;;;;;;0.60;0.60;;;8.70;99.90;;;;;;5031983;28;20198;-72
2023/06/11 03:41:20;;;;;;;0.60;0.60;;;8.80;99.90;;;;;;5031861;28;20295;-71
2023/06/11 03:43:46;;;;;;;0.60;0.60;;;8.90;99.90;;;;;;5031654;28;20268;-71
2023/06/11 03:46:12;;;;;;;0.50;0.50;;;8.90;99.90;;;;;;5031761;28;20194;-71
2023/06/11 03:48:37;;;;;;;0.80;0.70;;;9.00;99.90;;;;;;5031314;28;20209;-72
2023/06/11 03:51:03;;;;;;;0.75;0.75;;;9.10;99.90;;;;;;5031208;28;20264;-71
2023/06/11 03:53:29;;;;;;;0.60;0.60;;;9.20;99.90;;;;;;5030920;28;20656;-69
2023/06/11 03:55:55;;;;;;;0.60;0.60;;;9.20;99.90;;;;;;5031399;28;20186;-70
2023/06/11 03:58:21;;;;;;;0.60;0.60;;;9.20;99.90;;;;;;5030849;28;20206;-69
2023/06/11 04:00:46;;;;;;;0.60;0.60;;;9.30;99.90;;;;;;5031242;28;20205;-70
2023/06/11 04:03:12;;;;;;;0.60;0.60;;;9.40;99.90;;;;;;5031033;28;20224;-69
2023/06/11 04:05:38;;;;;;;0.60;0.60;;;9.50;99.90;;;;;;5030605;28;20226;-69
2023/06/11 04:08:04;;;;;;;2.95;0.98;;;9.60;99.90;;;;;;5031141;28;20228;-69
2023/06/11 04:10:30;;;;;;;0.60;0.60;;;9.70;99.90;;;;;;5030937;28;20661;-69
2023/06/11 04:12:56;;;;;;;0.50;0.50;;;9.80;99.90;;;;;;5031056;28;20201;-69
2023/06/11 04:15:22;;;;;;;0.50;0.50;;;9.90;99.90;;;;;;5012979;28;20198;-69
2023/06/11 04:17:48;;;;;;;0.70;0.70;;;10.00;99.90;;;;;;5044231;28;20204;-69
2023/06/11 04:20:13;;;;;;;0.50;0.50;;;10.10;99.90;;;;;;5034010;28;20209;-70
2023/06/11 04:22:41;;;;;;;0.60;0.60;;;10.20;99.90;;;;;;5030842;28;20225;-69
2023/06/11 04:25:07;;;;;;;0.75;0.75;;;10.30;99.90;;;;;;5030854;28;20190;-70
2023/06/11 04:27:33;;;;;;;0.60;0.60;;;10.40;99.90;;;;;;5030250;28;20202;-69
2023/06/11 04:30:01;;;;;;;2.55;0.93;;;10.50;99.90;;;;;;5030603;28;20244;-69
2023/06/11 04:32:27;;;;;;;0.70;0.70;;;10.60;99.90;;;;;;5030656;28;20574;-69
2023/06/11 04:34:56;;;;;;;0.52;0.52;;;10.70;99.90;;;;;;5030975;28;20664;-69
2023/06/11 04:37:24;;;;;;;0.50;0.50;;;10.80;99.90;;;;;;5030288;28;20193;-69
2023/06/11 04:39:49;;;;;;;0.50;0.50;;;11.00;99.90;;;;;;5030637;28;20611;-69
2023/06/11 04:42:16;;;;;;;0.47;0.47;;;11.10;99.90;;;;;;5030639;28;20198;-70
2023/06/11 04:44:41;;;;;;;0.88;0.88;;;11.20;99.90;;;;;;5028043;28;20194;-69
2023/06/11 04:47:08;;;;;;;0.60;0.60;;;11.20;99.90;;;;;;5010922;28;20244;-70
2023/06/11 04:49:34;;;;;;;0.65;0.57;;;11.40;99.90;;;;;;5010680;28;20195;-70
2023/06/11 04:51:59;;;;;;;0.60;0.60;;;11.50;99.90;;;;;;5011196;28;20202;-69
2023/06/11 04:54:27;;;;;;;0.50;0.50;;;11.60;99.90;;;;;;5029820;28;20668;-68
2023/06/11 04:56:52;;;;;;;3.00;0.80;;;11.70;99.90;;;;;;5030512;28;20186;-69
2023/06/11 04:59:18;;;;;;;0.50;0.50;;;11.80;99.90;;;;;;5030210;28;20194;-68
2023/06/11 05:01:48;;;;;;;0.40;0.40;;;12.00;99.90;;;;;;5030255;28;20653;-69
2023/06/11 05:04:14;;;;;;;0.60;0.60;;;12.10;99.90;;;;;;5030251;28;20233;-69
2023/06/11 05:06:45;;;;;;;0.50;0.50;;;12.30;99.90;;;;;;5030072;28;20561;-69
2023/06/11 05:09:14;;;;;;;0.50;0.50;;;12.40;99.90;;;;;;5030450;28;20190;-70
2023/06/11 05:11:43;;;;;;;0.40;0.40;;;12.50;99.90;;;;;;5030255;28;20204;-69
2023/06/11 05:14:09;;;;;;;0.63;0.63;;;12.70;99.90;;;;;;5030236;28;20195;-69
2023/06/11 05:16:35;;;;;;;0.50;0.50;;;12.80;99.90;;;;;;5010073;28;20201;-69
2023/06/11 05:19:01;;;;;;;0.60;0.60;;;12.90;99.90;;;;;;5030363;28;20194;-69
2023/06/11 05:21:27;;;;;;;0.85;0.82;;;13.00;99.90;;;;;;5012231;28;20210;-69
2023/06/11 05:23:53;;;;;;;0.65;0.65;;;13.10;99.90;;;;;;5029918;28;20225;-69
2023/06/11 05:26:31;;;;;;;0.40;0.40;;;13.30;99.90;;;;;;5012374;28;20206;-69
2023/06/11 05:28:57;;;;;;;0.50;0.50;;;13.40;99.90;;;;;;5012266;28;20202;-69
2023/06/11 05:31:23;;;;;;;0.60;0.60;;;13.60;99.90;;;;;;5029997;28;20202;-68
2023/06/11 05:33:50;;;;;;;0.57;0.57;;;13.70;99.90;;;;;;5030042;28;20285;-68
2023/06/11 05:36:16;;;;;;;0.40;0.40;;;14.00;99.90;;;;;;5029927;28;20267;-68
2023/06/11 05:38:43;;;;;;;0.40;0.40;;;14.10;99.90;;;;;;5030172;28;20244;-69
2023/06/11 05:41:09;;;;;;;0.55;0.55;;;14.30;99.90;;;;;;5030075;28;20233;-69
2023/06/11 05:43:35;;;;;;;0.40;0.40;;;14.30;99.90;;;;;;5029769;28;20217;-69
2023/06/11 05:46:01;;;;;;;0.40;0.40;;;14.30;99.90;;;;;;5029965;28;20282;-69
2023/06/11 05:48:28;;;;;;;0.68;0.50;;;14.50;99.90;;;;;;5029920;28;20603;-69
2023/06/11 05:50:55;;;;;;;0.40;0.40;;;14.60;99.90;;;;;;5029681;28;20653;-69
2023/06/11 05:53:20;;;;;;;5.65;1.15;;;14.80;99.90;;;;;;5029564;28;20200;-69
2023/06/11 05:55:46;;;;;;;0.30;0.30;;;15.10;99.90;;;;;;5030043;28;20277;-69
2023/06/11 05:58:12;;;;;;;0.40;0.40;;;15.20;99.90;;;;;;5029837;28;20198;-69
2023/06/11 06:00:38;;;;;;;0.90;0.63;;;15.40;99.90;;;;;;5029615;28;20218;-68
2023/06/11 06:03:04;;;;;;;0.50;0.50;;;15.50;99.90;;;;;;5029837;28;20206;-68
2023/06/11 06:05:30;;;;;;;0.40;0.40;;;16.00;99.90;;;;;;5011612;28;20718;-68
2023/06/11 06:07:56;;;;;;;0.30;0.30;;;16.60;99.90;;;;;;5033177;28;20225;-68
2023/06/11 06:10:22;;;;;;;0.43;0.43;;;17.20;99.90;;;;;;5033480;28;20265;-68
2023/06/11 06:12:48;;;;;;;0.30;0.30;;;17.40;99.90;;;;;;5033206;28;20273;-69
2023/06/11 06:15:13;;;;;;;0.20;0.20;;;17.30;99.90;;;;;;5033071;28;20198;-69
2023/06/11 06:17:39;;;;;;;0.20;0.20;;;17.50;99.90;;;;;;5015253;28;20198;-68
2023/06/11 06:20:06;;;;;;;0.28;0.28;;;17.60;99.90;;;;;;5032793;28;20545;-69
2023/06/11 06:22:31;;;;;;;0.30;0.30;;;18.00;99.90;;;;;;5032852;28;20534;-69
2023/06/11 06:24:57;;;;;;;0.40;0.40;;;18.10;99.90;;;;;;5033170;28;20216;-68
2023/06/11 06:27:23;;;;;;;0.40;0.40;;;18.00;99.90;;;;;;5032869;28;20190;-69
2023/06/11 06:29:49;;;;;;;0.22;0.22;;;18.30;99.90;;;;;;5032919;28;20241;-68
2023/06/11 06:32:15;;;;;;;0.20;0.20;;;18.00;99.90;;;;;;5033140;28;20191;-67
2023/06/11 06:34:41;;;;;;;0.30;0.30;;;18.30;99.90;;;;;;5032871;28;20204;-67
2023/06/11 06:37:07;;;;;;;0.20;0.20;;;18.60;99.90;;;;;;5015060;28;20194;-69
2023/06/11 06:39:33;;;;;;;0.20;0.20;;;18.50;99.90;;;;;;5032733;28;20194;-68
2023/06/11 06:41:59;;;;;;;0.30;0.30;;;18.20;99.90;;;;;;5032806;28;20212;-70
2023/06/11 06:44:25;;;;;;;0.30;0.30;;;18.30;99.90;;;;;;5032370;28;20226;-69
2023/06/11 06:46:53;;;;;;;0.30;0.30;;;18.20;99.90;;;;;;5032636;28;20187;-68
2023/06/11 06:49:20;;;;;;;0.25;0.25;;;18.50;99.90;;;;;;5032569;28;20198;-69
2023/06/11 06:51:46;;;;;;;0.32;0.32;;;18.90;99.90;;;;;;5032513;28;20198;-68
2023/06/11 06:54:12;;;;;;;0.30;0.30;;;19.00;99.90;;;;;;5032355;28;20565;-68
2023/06/11 06:56:37;;;;;;;0.30;0.30;;;18.90;99.90;;;;;;5032368;28;20225;-68
2023/06/11 06:59:03;;;;;;;0.30;0.30;;;19.00;99.90;;;;;;5032663;28;20194;-69
2023/06/11 07:01:29;;;;;;;0.20;0.20;;;18.90;99.90;;;;;;5031915;28;20560;-69
2023/06/11 07:03:55;;;;;;;0.52;0.43;;;19.30;99.90;;;;;;5014328;28;20226;-69
2023/06/11 07:06:21;;;;;;;0.35;0.35;;;19.20;99.90;;;;;;5032165;28;20194;-69
2023/06/11 07:08:46;;;;;;;0.20;0.20;;;19.20;98.30;;;;;;5031790;28;20959;-68
2023/06/11 07:11:15;;;;;;;0.50;0.50;;;19.40;99.90;;;;;;5032332;28;20353;-68
2023/06/11 07:13:40;;;;;;;0.50;0.35;;;19.90;99.00;;;;;;5032559;28;20190;-70
2023/06/11 07:16:06;;;;;;;0.10;0.10;;;19.70;97.80;;;;;;5032260;28;20236;-68
2023/06/11 07:18:32;;;;;;;0.20;0.20;;;19.80;97.70;;;;;;5031737;28;20228;-70
2023/06/11 07:20:59;;;;;;;0.30;0.30;;;19.90;96.70;;;;;;5032780;28;20208;-70
2023/06/11 07:23:24;;;;;;;0.30;0.30;;;20.10;95.80;;;;;;5032219;28;20186;-70
2023/06/11 07:25:51;;;;;;;0.20;0.20;;;20.00;95.20;;;;;;5032635;28;20537;-68
2023/06/11 07:28:16;;;;;;;0.20;0.20;;;20.20;97.10;;;;;;5032553;28;20680;-69
2023/06/11 07:30:43;;;;;;;0.20;0.20;;;20.40;95.90;;;;;;5032190;28;20190;-68
2023/06/11 07:33:08;;;;;;;0.50;0.30;;;20.50;96.50;;;;;;5006880;28;20226;-68
2023/06/11 07:35:34;;;;;;;0.30;0.30;;;20.90;94.80;;;;;;5032313;28;20703;-69
2023/06/11 07:38:00;;;;;;;0.20;0.20;;;21.00;95.40;;;;;;5032356;28;20224;-68
2023/06/11 07:40:26;;;;;;;0.80;0.50;;;21.30;93.70;;;;;;5032225;28;20205;-69
2023/06/11 07:42:51;;;;;;;0.30;0.30;;;20.50;92.50;;;;;;5032261;28;20202;-68
2023/06/11 07:45:17;;;;;;;0.20;0.20;;;20.00;93.10;;;;;;5031376;28;20194;-70
2023/06/11 07:47:43;;;;;;;0.30;0.30;;;20.40;94.20;;;;;;5032023;28;20479;-71
2023/06/11 07:50:10;;;;;;;0.20;0.20;;;20.30;92.50;;;;;;5032188;28;20561;-69
2023/06/11 07:52:36;;;;;;;0.45;0.45;;;20.60;91.00;;;;;;5030899;28;20458;-69
2023/06/11 07:55:02;;;;;;;0.20;0.20;;;20.70;91.20;;;;;;5031967;28;20194;-71
2023/06/11 07:57:28;;;;;;;1.65;0.63;;;20.70;91.60;;;;;;5032183;28;20194;-70
2023/06/11 07:59:54;;;;;;;0.20;0.20;;;20.80;91.70;;;;;;5014151;28;20197;-71
2023/06/11 08:02:20;;;;;;;0.40;0.40;;;21.20;91.50;;;;;;5013835;28;20221;-71
2023/06/11 08:04:46;;;;;;;0.38;0.38;;;21.30;90.00;;;;;;5031525;28;20759;-70
2023/06/11 08:07:12;;;;;;;0.73;0.52;;;21.10;89.30;;;;;;5031869;28;20277;-68
2023/06/11 08:09:38;;;;;;;0.20;0.20;;;21.20;86.80;;;;;;5031179;28;20198;-70
2023/06/11 08:12:08;;;;;;;0.70;0.30;;;20.80;90.50;;;;;;5031601;28;20237;-68
2023/06/11 08:14:35;;;;;;;0.25;0.25;;;21.30;88.20;;;;;;5031623;28;20194;-68
2023/06/11 08:17:02;;;;;;;0.20;0.20;;;21.70;85.30;;;;;;5031814;28;20285;-69
2023/06/11 08:19:27;;;;;;;0.30;0.30;;;21.60;85.70;;;;;;5031532;28;20225;-69
2023/06/11 08:21:59;;;;;;;0.20;0.20;;;22.00;83.20;;;;;;5031883;28;20704;-68
2023/06/11 08:24:25;;;;;;;0.20;0.20;;;21.80;82.80;;;;;;5031429;28;20531;-70
2023/06/11 08:26:51;;;;;;;0.20;0.20;;;21.60;82.80;;;;;;5030952;28;20247;-69
2023/06/11 08:29:17;;;;;;;0.20;0.20;;;21.30;87.20;;;;;;5031665;28;20218;-72
2023/06/11 08:31:43;;;;;;;0.20;0.20;;;21.60;85.80;;;;;;5030915;28;20273;-70
2023/06/11 08:34:09;;;;;;;0.20;0.20;;;21.70;85.80;;;;;;5031575;28;20680;-70
2023/06/11 08:36:36;;;;;;;0.30;0.30;;;22.00;84.20;;;;;;5031257;28;20198;-70
2023/06/11 08:39:02;;;;;;;0.30;0.30;;;21.90;79.30;;;;;;5031334;28;20194;-69
2023/06/11 08:41:31;;;;;;;0.15;0.15;;;22.00;82.30;;;;;;5031070;28;20210;-69
2023/06/11 08:44:00;;;;;;;0.40;0.40;;;21.70;82.40;;;;;;5031761;28;20195;-70
2023/06/11 08:46:25;;;;;;;0.20;0.20;;;21.90;82.10;;;;;;5031318;28;20221;-71
2023/06/11 08:49:02;;;;;;;0.57;0.57;;;22.00;77.70;;;;;;5030785;28;20471;-74
2023/06/11 08:51:35;;;;;;;0.35;0.35;;;21.80;76.20;;;;;;5030854;28;20224;-74
2023/06/11 08:54:00;;;;;;;0.20;0.20;;;21.90;78.10;;;;;;5030696;28;20660;-76
2023/06/11 08:56:27;;;;;;;0.20;0.20;;;22.50;80.80;;;;;;5030908;28;20205;-74
2023/06/11 08:58:54;;;;;;;0.20;0.20;;;22.90;78.10;;;;;;5031208;28;20653;-78
2023/06/11 09:01:22;;;;;;;0.45;0.38;;;23.10;76.60;;;;;;5030757;28;20202;-73
2023/06/11 09:03:48;;;;;;;0.20;0.20;;;22.50;75.00;;;;;;5031160;28;20305;-70
2023/06/11 09:06:14;;;;;;;0.10;0.10;;;22.40;74.90;;;;;;5030030;28;20293;-71
2023/06/11 09:08:40;;;;;;;0.20;0.20;;;22.90;76.40;;;;;;5030676;28;20681;-73
2023/06/11 09:11:06;;;;;;;0.10;0.10;;;22.90;75.60;;;;;;5030764;28;20312;-73
2023/06/11 09:13:32;;;;;;;0.50;0.50;;;23.50;74.20;;;;;;5030613;28;20280;-71
2023/06/11 09:15:58;;;;;;;0.20;0.20;;;23.80;73.90;;;;;;5030585;28;20999;-71
2023/06/11 09:18:25;;;;;;;0.20;0.20;;;24.10;70.20;;;;;;5031162;28;20198;-70
2023/06/11 09:20:53;;;;;;;0.55;0.38;;;23.80;71.30;;;;;;5013476;28;20221;-70
2023/06/11 09:23:32;;;;;;;0.38;0.30;;;23.50;70.70;;;;;;5031189;28;20296;-70
2023/06/11 09:26:00;;;;;;;0.10;0.10;;;23.00;70.70;;;;;;5031146;28;20220;-71
2023/06/11 09:28:36;;;;;;;0.10;0.10;;;23.00;70.50;;;;;;5030750;28;20187;-71
2023/06/11 09:31:04;;;;;;;0.13;0.13;;;23.30;71.10;;;;;;5030873;28;20193;-71
2023/06/11 09:33:31;;;;;;;0.20;0.20;;;23.10;68.30;;;;;;5013129;28;20229;-71
2023/06/11 09:35:58;;;;;;;0.20;0.20;;;23.60;71.50;;;;;;5030746;28;20198;-70
2023/06/11 09:38:24;;;;;;;0.28;0.28;;;23.70;71.40;;;;;;5012923;28;20680;-70
2023/06/11 09:40:52;;;;;;;0.40;0.40;;;22.90;63.80;;;;;;5030987;28;20213;-70
2023/06/11 09:43:23;;;;;;;0.10;0.10;;;22.90;67.10;;;;;;5034250;28;20244;-71
2023/06/11 09:45:54;;;;;;;0.30;0.30;;;23.50;70.60;;;;;;5034616;28;20190;-71
2023/06/11 09:48:23;;;;;;;0.20;0.20;;;23.70;67.70;;;;;;5034416;28;20189;-72
2023/06/11 09:50:50;;;;;;;0.17;0.17;;;24.00;65.80;;;;;;5034246;28;20201;-72
2023/06/11 09:53:21;;;;;;;0.10;0.10;;;24.80;63.50;;;;;;5016674;28;20233;-72
2023/06/11 09:55:50;;;;;;;0.20;0.20;;;25.10;62.10;;;;;;5034223;28;20268;-71
2023/06/11 09:58:22;;;;;;;0.20;0.20;;;24.50;61.50;;;;;;5034405;28;20264;-71
2023/06/11 10:01:00;;;;;;;0.20;0.20;;;24.70;60.80;;;;;;5034360;28;20292;-69
2023/06/11 10:03:26;;;;;;;0.10;0.10;;;25.00;63.50;;;;;;5033420;28;20355;-71
2023/06/11 10:05:53;;;;;;;0.17;0.17;;;24.30;61.40;;;;;;5034321;28;20204;-73
2023/06/11 10:08:21;;;;;;;0.25;0.25;;;25.00;63.80;;;;;;5016496;28;20650;-72
2023/06/11 10:10:51;;;;;;;0.20;0.20;;;25.80;64.00;;;;;;5033569;28;20281;-73
2023/06/11 10:13:37;;;;;;;0.17;0.17;;;25.80;60.30;;;;;;5033412;28;20615;-70
2023/06/11 10:16:06;;;;;;;3.83;0.40;;;25.80;59.50;;;;;;5016057;28;20226;-70
2023/06/11 10:18:32;;;;;;;0.20;0.20;;;26.00;58.70;;;;;;5033142;28;20534;-71
2023/06/11 10:21:03;;;;;;;0.10;0.10;;;26.10;60.30;;;;;;5033900;28;20260;-72
2023/06/11 10:23:36;;;;;;;0.25;0.25;;;26.60;61.10;;;;;;5016064;28;20194;-73
2023/06/11 10:26:02;;;;;;;0.20;0.20;;;26.50;55.00;;;;;;5016168;28;20202;-73
2023/06/11 10:28:54;;;;;;;0.28;0.28;;;26.20;56.20;;;;;;5033646;28;20194;-74
2023/06/11 10:31:35;;;;;;;0.20;0.20;;;26.00;56.30;;;;;;5030534;28;20198;-72
2023/06/11 10:34:01;;;;;;;0.10;0.10;;;25.90;61.50;;;;;;5033811;28;20274;-73
2023/06/11 10:36:36;;;;;;;2.85;0.35;;;25.50;55.60;;;;;;5033514;28;20711;-73
2023/06/11 10:39:08;;;;;;;0.10;0.10;;;25.30;55.00;;;;;;5033600;28;20197;-74
2023/06/11 10:41:40;;;;;;;0.10;0.10;;;25.60;56.40;;;;;;5033263;28;20212;-76
2023/06/11 10:44:07;;;;;;;1.08;0.30;;;26.10;55.20;;;;;;5015608;28;20429;-74
2023/06/11 10:46:53;;;;;;;0.10;0.10;;;25.80;52.80;;;;;;5015534;28;20285;-73
2023/06/11 10:49:29;;;;;;;0.10;0.10;;;25.90;54.20;;;;;;5033245;28;20677;-74
2023/06/11 10:51:55;;;;;;;0.10;0.10;;;26.50;52.50;;;;;;5015609;28;20325;-74
2023/06/11 10:54:32;;;;;;;0.10;0.10;;;26.40;52.60;;;;;;5032006;28;20190;-74
2023/06/11 10:57:02;;;;;;;0.10;0.10;;;27.00;53.50;;;;;;5033264;28;20193;-76
2023/06/11 10:59:29;;;;;;;0.10;0.10;;;26.70;49.80;;;;;;5032637;28;20198;-74
2023/06/11 11:01:56;;;;;;;0.30;0.30;;;25.80;50.90;;;;;;5033080;28;20201;-74
2023/06/11 11:04:22;;;;;;;0.35;0.35;;;25.90;52.60;;;;;;5032534;28;20597;-74
2023/06/11 11:06:48;;;;;;;0.17;0.17;;;26.20;52.10;;;;;;5033379;28;20190;-74
2023/06/11 11:09:23;;;;;;;0.10;0.10;;;26.90;52.00;;;;;;5032564;28;20219;-76
2023/06/11 11:11:52;;;;;;;0.20;0.20;;;27.20;52.30;;;;;;5032918;28;20200;-76
2023/06/11 11:14:18;;;;;;;0.10;0.10;;;28.10;51.60;;;;;;5032762;28;20563;-75
2023/06/11 11:16:48;;;;;;;0.08;0.08;;;28.10;49.80;;;;;;5015374;28;20193;-75
2023/06/11 11:19:14;;;;;;;0.10;0.10;;;27.60;48.10;;;;;;5033052;28;20189;-75
2023/06/11 11:21:42;;;;;;;0.10;0.10;;;27.50;51.40;;;;;;5032597;28;20206;-74
2023/06/11 11:24:10;;;;;;;0.00;0.00;;;27.10;50.60;;;;;;5032947;28;20197;-74
2023/06/11 11:26:42;;;;;;;0.25;0.10;;;26.90;49.30;;;;;;5032410;28;20504;-75
2023/06/11 11:29:09;;;;;;;0.08;0.08;;;26.90;49.50;;;;;;5032711;28;20661;-74
2023/06/11 11:31:36;;;;;;;0.05;0.05;;;26.70;51.90;;;;;;5032268;28;20198;-75
2023/06/11 11:34:02;;;;;;;0.10;0.10;;;26.80;50.20;;;;;;5014981;28;20205;-75
2023/06/11 11:36:27;;;;;;;0.00;0.00;;;27.10;49.70;;;;;;5013823;28;20198;-75
2023/06/11 11:38:53;;;;;;;0.00;0.00;;;26.90;52.00;;;;;;5032755;28;20224;-74
2023/06/11 11:41:24;;;;;;;0.10;0.10;;;27.00;51.40;;;;;;5032099;28;20216;-74
2023/06/11 11:43:50;;;;;;;1.95;0.50;;;27.30;51.00;;;;;;5032321;28;20190;-74
2023/06/11 11:46:23;;;;;;;0.85;0.25;;;27.80;52.80;;;;;;5032091;28;20700;-74
2023/06/11 11:48:54;;;;;;;0.00;0.00;;;27.60;51.10;;;;;;5032112;28;20637;-75
2023/06/11 11:51:20;;;;;;;0.00;0.00;;;27.30;50.80;;;;;;5014217;28;20416;-74
2023/06/11 11:53:46;;;;;;;0.00;0.00;;;27.40;48.90;;;;;;5033813;28;20210;-75
2023/06/11 11:56:12;;;;;;;0.40;0.20;;;27.20;48.00;;;;;;5031739;28;20198;-75
2023/06/11 11:58:41;;;;;;;0.10;0.10;;;26.40;50.40;;;;;;5014069;28;20235;-74
2023/06/11 12:01:21;;;;;;;0.20;0.20;;;27.20;51.10;;;;;;5031890;28;20214;-75
2023/06/11 12:04:00;;;;;;;0.65;0.30;;;27.80;49.90;;;;;;5031640;28;20257;-77
2023/06/11 12:06:26;;;;;;;0.00;0.00;;;27.70;51.40;;;;;;5014034;28;20225;-77
2023/06/11 12:08:52;;;;;;;0.05;0.05;;;27.30;49.80;;;;;;5014430;28;20587;-77
2023/06/11 12:11:18;;;;;;;1.52;0.90;;;27.70;48.40;;;;;;5031763;28;20284;-75
2023/06/11 12:13:43;;;;;;;1.10;0.40;;;27.70;51.30;;;;;;5031279;28;20198;-78
2023/06/11 12:16:09;;;;;;;0.30;0.30;;;28.10;48.80;;;;;;5014082;28;20412;-76
2023/06/11 12:18:36;;;;;;;0.20;0.20;;;27.80;49.40;;;;;;5013805;28;20734;-75
2023/06/11 12:21:01;;;;;;;0.20;0.20;;;27.90;48.00;;;;;;5031605;28;20231;-77
2023/06/11 12:23:27;;;;;;;0.10;0.10;;;28.10;50.30;;;;;;5031597;28;20190;-76
2023/06/11 12:25:53;;;;;;;1.48;0.35;;;28.20;50.20;;;;;;5031086;28;20197;-76
2023/06/11 12:28:19;;;;;;;0.20;0.20;;;27.50;48.10;;;;;;5031728;28;20197;-77
2023/06/11 12:30:45;;;;;;;0.10;0.10;;;27.50;49.50;;;;;;5013509;28;20205;-74
2023/06/11 12:33:11;;;;;;;0.10;0.10;;;27.60;51.40;;;;;;5031534;28;20223;-74
2023/06/11 12:35:37;;;;;;;0.22;0.22;;;27.80;50.60;;;;;;5031615;28;20665;-75
2023/06/11 12:38:03;;;;;;;0.43;0.22;;;28.20;54.00;;;;;;5031244;28;20597;-74
2023/06/11 12:40:30;;;;;;;1.27;0.47;;;27.80;51.30;;;;;;5031315;28;20282;-76
2023/06/11 12:42:58;;;;;;;0.17;0.17;;;27.40;49.70;;;;;;5031141;28;20197;-74
2023/06/11 12:45:28;;;;;;;0.30;0.30;;;27.10;53.80;;;;;;5013036;28;20213;-73
2023/06/11 12:47:55;;;;;;;0.30;0.30;;;26.90;52.80;;;;;;5031454;28;20192;-76
2023/06/11 12:50:22;;;;;;;0.40;0.40;;;27.40;52.60;;;;;;5030923;28;20224;-76
2023/06/11 12:52:48;;;;;;;0.15;0.15;;;27.60;49.60;;;;;;5012770;28;20289;-72
2023/06/11 12:55:13;;;;;;;0.35;0.35;;;27.50;49.40;;;;;;5031387;28;20280;-74
2023/06/11 12:57:39;;;;;;;0.38;0.38;;;27.60;49.60;;;;;;5013401;28;20240;-73
2023/06/11 13:00:05;;;;;;;0.20;0.20;;;27.60;50.00;;;;;;5031013;28;20676;-73
2023/06/11 13:02:31;;;;;;;0.10;0.10;;;27.00;48.30;;;;;;5031171;28;20220;-73